createdAt,value
2023-10-10T00:01:29.616Z,23.72
2023-10-10T00:03:56.675Z,23.77
2023-10-10T00:06:25.780Z,23.79
2023-10-10T00:08:54.107Z,23.85
2023-10-10T00:11:21.633Z,23.83
2023-10-10T00:13:54.133Z,23.82
2023-10-10T00:16:26.861Z,23.82
2023-10-10T00:18:57.303Z,23.82
2023-10-10T00:21:25.067Z,23.82
2023-10-10T00:23:54.935Z,23.80
2023-10-10T00:26:24.870Z,23.79
2023-10-10T00:28:56.071Z,23.81
2023-10-10T00:31:28.710Z,23.81
2023-10-10T00:33:56.749Z,23.82
2023-10-10T00:36:32.483Z,23.83
2023-10-10T00:39:25.525Z,23.76
2023-10-10T00:41:52.589Z,23.76
2023-10-10T00:44:20.821Z,23.74
2023-10-10T00:46:56.585Z,23.75
2023-10-10T00:49:26.953Z,23.73
2023-10-10T00:51:56.984Z,23.72
2023-10-10T00:54:28.279Z,23.72
2023-10-10T00:56:57.704Z,23.66
2023-10-10T00:59:36.081Z,23.67
2023-10-10T01:02:07.378Z,23.65
2023-10-10T01:04:40.223Z,23.65
2023-10-10T01:07:10.702Z,23.62
2023-10-10T01:09:53.321Z,23.67
2023-10-10T01:12:20.546Z,23.61
2023-10-10T01:14:47.990Z,23.62
2023-10-10T01:17:16.936Z,23.58
2023-10-10T01:19:45.536Z,23.62
2023-10-10T01:22:23.800Z,23.62
2023-10-10T01:24:53.676Z,23.59
2023-10-10T01:27:22.881Z,23.58
2023-10-10T01:30:12.830Z,23.57
2023-10-10T01:32:40.940Z,23.60
2023-10-10T01:35:17.929Z,23.56
2023-10-10T01:37:55.982Z,23.58
2023-10-10T01:40:25.576Z,23.54
2023-10-10T01:42:55.713Z,23.53
2023-10-10T01:45:25.010Z,23.53
2023-10-10T01:47:58.846Z,23.55
2023-10-10T01:50:28.837Z,23.52
2023-10-10T01:52:57.496Z,23.53
2023-10-10T01:55:26.492Z,23.49
2023-10-10T01:58:02.068Z,23.50
2023-10-10T02:00:35.915Z,23.48
2023-10-10T02:03:05.541Z,23.48
2023-10-10T02:05:46.820Z,23.46
2023-10-10T02:08:18.307Z,23.45
2023-10-10T02:10:49.888Z,23.44
2023-10-10T02:13:18.430Z,23.45
2023-10-10T02:15:45.503Z,23.46
2023-10-10T02:18:15.705Z,23.47
2023-10-10T02:20:43.442Z,23.43
2023-10-10T02:23:24.287Z,23.45
2023-10-10T02:25:57.146Z,23.43
2023-10-10T02:28:43.952Z,23.44
2023-10-10T02:31:14.268Z,23.40
2023-10-10T02:33:49.790Z,23.42
2023-10-10T02:36:32.116Z,23.48
2023-10-10T02:39:20.330Z,23.45
2023-10-10T02:41:52.916Z,23.40
2023-10-10T02:44:35.743Z,23.38
2023-10-10T02:47:03.748Z,23.39
2023-10-10T02:49:30.797Z,23.40
2023-10-10T02:51:59.522Z,23.43
2023-10-10T02:54:27.902Z,23.41
2023-10-10T02:57:20.823Z,23.41
2023-10-10T02:59:52.303Z,23.42
2023-10-10T03:02:21.161Z,23.40
2023-10-10T03:05:04.725Z,23.40
2023-10-10T03:07:31.988Z,23.37
2023-10-10T03:10:16.266Z,23.36
2023-10-10T03:12:43.999Z,23.37
2023-10-10T03:15:20.856Z,23.37
2023-10-10T03:17:53.901Z,23.36
2023-10-10T03:20:40.040Z,23.38
2023-10-10T03:23:07.278Z,23.32
2023-10-10T03:25:48.190Z,23.39
2023-10-10T03:28:28.362Z,23.32
2023-10-10T03:31:10.273Z,23.31
2023-10-10T03:33:38.277Z,23.25
2023-10-10T03:36:14.005Z,23.27
2023-10-10T03:38:44.484Z,23.23
2023-10-10T03:41:27.162Z,23.19
2023-10-10T03:44:14.617Z,23.15
2023-10-10T03:47:03.061Z,23.18
2023-10-10T03:49:52.135Z,23.19
2023-10-10T03:52:37.838Z,23.19
2023-10-10T03:55:23.874Z,23.20
2023-10-10T03:58:09.545Z,23.15
2023-10-10T04:00:55.387Z,23.18
2023-10-10T04:03:41.203Z,23.18
2023-10-10T04:06:26.936Z,23.14
2023-10-10T04:09:12.628Z,23.12
2023-10-10T04:11:58.447Z,23.16
2023-10-10T04:14:44.330Z,23.11
2023-10-10T04:17:30.027Z,23.13
2023-10-10T04:20:15.691Z,23.10
2023-10-10T04:23:01.465Z,23.06
2023-10-10T04:25:46.928Z,23.02
2023-10-10T04:28:32.521Z,23.04
2023-10-10T04:31:18.332Z,23.01
2023-10-10T04:34:04.212Z,22.93
2023-10-10T04:36:49.982Z,22.89
2023-10-10T04:39:35.786Z,22.89
2023-10-10T04:42:21.273Z,22.93
2023-10-10T04:45:07.164Z,22.91
2023-10-10T04:47:52.738Z,22.90
2023-10-10T04:50:38.286Z,22.90
2023-10-10T04:53:24.196Z,22.90
2023-10-10T04:56:10.060Z,22.92
2023-10-10T04:58:55.825Z,22.92
2023-10-10T05:01:41.862Z,22.86
2023-10-10T05:04:27.496Z,22.86
2023-10-10T05:07:13.527Z,22.88
2023-10-10T05:09:59.192Z,22.88
2023-10-10T05:12:44.865Z,22.87
2023-10-10T05:15:30.710Z,22.86
2023-10-10T05:18:16.461Z,22.86
2023-10-10T05:21:02.396Z,22.65
2023-10-10T05:23:36.115Z,22.50
2023-10-10T05:26:15.278Z,22.44
2023-10-10T05:28:46.570Z,22.37
2023-10-10T05:31:19.410Z,22.31
2023-10-10T05:33:48.529Z,22.25
2023-10-10T05:36:19.626Z,22.20
2023-10-10T05:38:47.631Z,22.14
2023-10-10T05:41:14.791Z,22.08
2023-10-10T05:43:42.504Z,22.05
2023-10-10T05:46:10.911Z,22.03
2023-10-10T05:48:38.344Z,22.00
2023-10-10T05:51:05.402Z,22.00
2023-10-10T05:53:35.210Z,22.00
2023-10-10T05:56:14.479Z,22.03
2023-10-10T05:58:46.291Z,21.98
2023-10-10T06:01:15.298Z,22.02
2023-10-10T06:03:43.573Z,22.01
2023-10-10T06:06:13.857Z,22.01
2023-10-10T06:08:43.508Z,22.04
2023-10-10T06:11:11.722Z,22.08
2023-10-10T06:13:41.958Z,22.17
2023-10-10T06:16:14.751Z,22.24
2023-10-10T06:18:47.887Z,22.28
2023-10-10T06:21:16.370Z,22.36
2023-10-10T06:23:45.971Z,22.47
2023-10-10T06:26:14.368Z,22.55
2023-10-10T06:28:49.052Z,22.63
2023-10-10T06:31:33.732Z,22.71
2023-10-10T06:34:01.088Z,22.77
2023-10-10T06:36:34.106Z,22.86
2023-10-10T06:41:49.659Z,23.10
2023-10-10T06:44:36.620Z,23.23
2023-10-10T06:47:10.876Z,23.39
2023-10-10T06:49:59.359Z,23.47
2023-10-10T06:52:29.474Z,23.62
2023-10-10T06:54:57.590Z,23.78
2023-10-10T06:57:41.715Z,23.85
2023-10-10T07:00:20.423Z,24.00
2023-10-10T07:02:55.008Z,24.13
2023-10-10T07:05:27.758Z,24.23
2023-10-10T07:07:59.981Z,24.26
2023-10-10T07:10:35.070Z,24.43
2023-10-10T07:13:03.616Z,24.54
2023-10-10T07:15:36.406Z,24.67
2023-10-10T07:18:30.953Z,24.79
2023-10-10T07:21:05.848Z,24.87
2023-10-10T07:23:43.064Z,25.00
2023-10-10T07:26:21.025Z,25.06
2023-10-10T07:28:49.709Z,25.20
2023-10-10T07:31:22.656Z,25.27
2023-10-10T07:34:16.573Z,25.40
2023-10-10T07:36:51.867Z,25.42
2023-10-10T07:39:34.436Z,25.55
2023-10-10T07:42:01.663Z,25.65
2023-10-10T07:44:31.574Z,25.72
2023-10-10T07:47:11.156Z,25.74
2023-10-10T07:49:42.035Z,25.91
2023-10-10T07:52:17.982Z,26.05
2023-10-10T07:54:47.767Z,26.16
2023-10-10T07:57:24.177Z,26.32
2023-10-10T07:59:59.930Z,26.37
2023-10-10T08:02:33.890Z,26.44
2023-10-10T08:05:12.439Z,26.51
2023-10-10T08:07:39.501Z,26.62
2023-10-10T08:10:14.560Z,26.69
2023-10-10T08:12:43.404Z,26.79
2023-10-10T08:15:26.551Z,26.90
2023-10-10T08:17:56.360Z,27.00
2023-10-10T08:21:00.964Z,27.09
2023-10-10T08:23:28.775Z,27.15
2023-10-10T08:25:55.791Z,27.25
2023-10-10T08:28:22.801Z,27.33
2023-10-10T08:30:50.768Z,27.42
2023-10-10T08:33:18.182Z,27.47
2023-10-10T08:35:46.794Z,27.54
2023-10-10T08:38:15.022Z,27.61
2023-10-10T08:40:42.366Z,27.66
2023-10-10T08:43:10.490Z,27.71
2023-10-10T08:45:41.542Z,27.75
2023-10-10T08:48:14.678Z,27.81
2023-10-10T08:50:43.452Z,27.85
2023-10-10T08:53:14.499Z,27.89
2023-10-10T08:55:42.494Z,27.91
2023-10-10T08:58:10.847Z,27.95
2023-10-10T09:00:39.172Z,27.99
2023-10-10T09:03:09.846Z,28.02
2023-10-10T09:05:38.088Z,28.05
2023-10-10T09:08:17.758Z,28.08
2023-10-10T09:10:47.130Z,28.10
2023-10-10T09:13:15.020Z,28.15
2023-10-10T09:15:55.731Z,28.20
2023-10-10T09:18:24.625Z,28.21
2023-10-10T09:20:52.189Z,28.25
2023-10-10T09:23:27.422Z,28.29
2023-10-10T09:26:20.267Z,28.32
2023-10-10T09:29:04.708Z,28.37
2023-10-10T09:31:32.854Z,28.43
2023-10-10T09:34:04.957Z,28.50
2023-10-10T09:36:39.539Z,28.54
2023-10-10T09:39:16.064Z,28.59
2023-10-10T09:42:08.366Z,28.60
2023-10-10T09:45:00.543Z,28.63
2023-10-10T09:47:47.097Z,28.63
2023-10-10T09:50:23.797Z,28.65
2023-10-10T09:52:55.105Z,28.67
2023-10-10T09:55:26.084Z,28.71
2023-10-10T09:58:06.808Z,28.69
2023-10-10T10:00:39.580Z,28.72
2023-10-10T10:03:29.586Z,28.74
2023-10-10T10:06:24.016Z,28.79
2023-10-10T10:09:18.882Z,28.81
2023-10-10T10:12:05.440Z,28.74
2023-10-10T10:15:14.020Z,28.72
2023-10-10T10:17:55.908Z,28.74
2023-10-10T10:21:05.989Z,28.74
2023-10-10T10:23:46.774Z,28.75
2023-10-10T10:26:33.341Z,28.74
2023-10-10T10:29:16.306Z,28.75
2023-10-10T10:31:59.026Z,28.71
2023-10-10T10:34:31.794Z,28.71
2023-10-10T10:37:22.971Z,28.71
2023-10-10T10:40:13.395Z,28.62
2023-10-10T10:42:48.236Z,28.51
2023-10-10T10:45:35.367Z,28.57
2023-10-10T10:48:08.938Z,28.61
2023-10-10T10:50:44.964Z,28.65
2023-10-10T10:53:43.084Z,28.66
2023-10-10T10:56:18.982Z,28.65
2023-10-10T10:59:09.232Z,28.63
2023-10-10T11:01:43.705Z,28.65
2023-10-10T11:04:17.635Z,28.62
2023-10-10T11:06:52.836Z,28.67
2023-10-10T11:09:29.931Z,28.71
2023-10-10T11:12:08.282Z,28.73
2023-10-10T11:14:45.657Z,28.72
2023-10-10T11:17:20.380Z,28.69
2023-10-10T11:19:49.492Z,28.68
2023-10-10T11:22:37.329Z,28.63
2023-10-10T11:25:06.498Z,28.65
2023-10-10T11:27:45.673Z,28.63
2023-10-10T11:30:20.541Z,28.65
2023-10-10T11:32:48.304Z,28.67
2023-10-10T11:35:27.964Z,28.67
2023-10-10T11:38:07.543Z,28.65
2023-10-10T11:40:34.823Z,28.59
2023-10-10T11:43:06.620Z,28.50
2023-10-10T11:45:52.291Z,28.50
2023-10-10T11:48:20.058Z,28.44
2023-10-10T11:50:52.104Z,28.47
2023-10-10T11:53:24.934Z,28.47
2023-10-10T11:55:56.252Z,28.40
2023-10-10T11:58:37.505Z,28.29
2023-10-10T12:01:09.024Z,28.34
2023-10-10T12:03:40.028Z,28.32
2023-10-10T12:06:28.607Z,28.30
2023-10-10T12:08:55.736Z,28.33
2023-10-10T12:11:24.000Z,28.33
2023-10-10T12:13:53.655Z,28.33
2023-10-10T12:16:25.942Z,28.27
2023-10-10T12:18:56.852Z,28.34
2023-10-10T12:21:25.264Z,28.35
2023-10-10T12:23:59.365Z,28.38
2023-10-10T12:26:28.234Z,28.36
2023-10-10T12:28:55.313Z,28.38
2023-10-10T12:31:23.922Z,28.34
2023-10-10T12:33:54.594Z,28.37
2023-10-10T12:36:31.134Z,28.40
2023-10-10T12:39:01.513Z,28.36
2023-10-10T12:41:29.414Z,28.27
2023-10-10T12:43:56.898Z,28.19
2023-10-10T12:46:23.996Z,28.21
2023-10-10T12:48:54.438Z,28.07
2023-10-10T12:51:25.739Z,28.10
2023-10-10T12:54:01.668Z,28.08
2023-10-10T12:56:30.178Z,28.18
2023-10-10T12:59:18.915Z,28.22
2023-10-10T13:01:57.449Z,28.33
2023-10-10T13:04:31.051Z,28.42
2023-10-10T13:07:06.354Z,28.46
2023-10-10T13:09:33.884Z,28.47
2023-10-10T13:12:04.914Z,28.51
2023-10-10T13:14:34.780Z,28.59
2023-10-10T13:17:31.101Z,28.65
2023-10-10T13:20:00.467Z,28.70
2023-10-10T13:22:30.829Z,28.63
2023-10-10T13:24:58.470Z,28.64
2023-10-10T13:27:26.818Z,28.57
2023-10-10T13:29:54.095Z,28.58
2023-10-10T13:32:21.829Z,28.55
2023-10-10T13:34:49.348Z,28.52
2023-10-10T13:37:16.600Z,28.47
2023-10-10T13:39:49.935Z,28.39
2023-10-10T13:42:19.414Z,28.40
2023-10-10T13:44:46.691Z,28.38
2023-10-10T13:47:14.621Z,28.40
2023-10-10T13:49:59.790Z,28.46
2023-10-10T13:52:27.000Z,28.43
2023-10-10T13:54:54.252Z,28.44
2023-10-10T13:57:21.398Z,28.51
2023-10-10T13:59:50.770Z,28.55
2023-10-10T14:02:18.474Z,28.57
2023-10-10T14:04:50.254Z,28.61
2023-10-10T14:07:18.569Z,28.57
2023-10-10T14:12:22.032Z,28.42
2023-10-10T14:14:49.629Z,28.44
2023-10-10T14:17:16.798Z,28.41
2023-10-10T14:19:43.871Z,28.41
2023-10-10T14:22:12.148Z,28.37
2023-10-10T14:24:39.319Z,28.34
2023-10-10T14:27:06.832Z,28.30
2023-10-10T14:29:43.247Z,28.26
2023-10-10T14:32:22.902Z,28.10
2023-10-10T14:34:54.475Z,28.07
2023-10-10T14:37:38.678Z,28.05
2023-10-10T14:40:10.945Z,28.01
2023-10-10T14:42:43.340Z,27.98
2023-10-10T14:45:10.687Z,27.94
2023-10-10T14:47:41.696Z,27.94
2023-10-10T14:50:12.096Z,27.94
2023-10-10T14:52:48.309Z,27.92
2023-10-10T14:55:25.696Z,27.90
2023-10-10T14:57:56.640Z,27.81
2023-10-10T15:00:29.788Z,27.77
2023-10-10T15:02:57.867Z,27.77
2023-10-10T15:05:26.941Z,27.75
2023-10-10T15:07:56.783Z,27.73
2023-10-10T15:10:28.236Z,27.70
2023-10-10T15:12:56.162Z,27.57
2023-10-10T15:15:24.530Z,27.61
2023-10-10T15:17:52.692Z,27.60
2023-10-10T15:20:20.234Z,27.61
2023-10-10T15:22:47.875Z,27.65
2023-10-10T15:25:19.126Z,27.61
2023-10-10T15:27:46.421Z,27.62
2023-10-10T15:30:14.463Z,27.63
2023-10-10T15:32:48.411Z,27.59
2023-10-10T15:35:18.469Z,27.62
2023-10-10T15:37:46.155Z,27.64
2023-10-10T15:40:14.811Z,27.60
2023-10-10T15:42:41.784Z,27.57
2023-10-10T15:45:09.328Z,27.56
2023-10-10T15:47:36.606Z,27.51
2023-10-10T15:50:03.974Z,27.50
2023-10-10T15:52:35.075Z,27.49
2023-10-10T15:55:06.986Z,27.49
2023-10-10T15:57:37.168Z,27.45
2023-10-10T16:00:11.863Z,27.43
2023-10-10T16:02:41.408Z,27.41
2023-10-10T16:05:09.589Z,27.33
2023-10-10T16:07:36.631Z,27.32
2023-10-10T16:10:04.483Z,27.28
2023-10-10T16:12:31.670Z,27.29
2023-10-10T16:14:59.386Z,27.26
2023-10-10T16:17:30.016Z,27.27
2023-10-10T16:19:57.126Z,27.28
2023-10-10T16:22:24.456Z,27.25
2023-10-10T16:24:53.929Z,27.25
2023-10-10T16:27:23.076Z,27.20
2023-10-10T16:29:56.944Z,27.17
2023-10-10T16:32:24.372Z,27.17
2023-10-10T16:34:52.107Z,27.18
2023-10-10T16:37:21.165Z,27.17
2023-10-10T16:39:48.693Z,27.11
2023-10-10T16:42:20.228Z,27.07
2023-10-10T16:44:47.982Z,27.06
2023-10-10T16:47:18.894Z,27.03
2023-10-10T16:49:50.837Z,26.98
2023-10-10T16:52:19.633Z,26.98
2023-10-10T16:54:53.416Z,26.92
2023-10-10T16:57:25.045Z,26.89
2023-10-10T16:59:53.780Z,26.85
2023-10-10T17:02:21.058Z,26.77
2023-10-10T17:04:48.135Z,26.75
2023-10-10T17:07:15.197Z,26.78
2023-10-10T17:09:42.316Z,26.75
2023-10-10T17:12:09.312Z,26.72
2023-10-10T17:14:38.805Z,26.69
2023-10-10T17:17:06.043Z,26.65
2023-10-10T17:19:33.425Z,26.64
2023-10-10T17:22:00.811Z,26.63
2023-10-10T17:24:28.116Z,26.59
2023-10-10T17:26:55.425Z,26.59
2023-10-10T17:29:25.089Z,26.58
2023-10-10T17:31:55.576Z,26.52
2023-10-10T17:34:26.539Z,26.50
2023-10-10T17:36:58.995Z,26.45
2023-10-10T17:39:26.711Z,26.40
2023-10-10T17:41:55.327Z,26.40
2023-10-10T17:44:22.694Z,26.37
2023-10-10T17:46:49.774Z,26.33
2023-10-10T17:49:17.334Z,26.33
2023-10-10T17:51:46.218Z,26.32
2023-10-10T17:54:13.591Z,26.29
2023-10-10T17:56:41.125Z,26.30
2023-10-10T17:59:08.396Z,26.25
2023-10-10T18:01:35.767Z,26.25
2023-10-10T18:04:04.563Z,26.23
2023-10-10T18:06:36.377Z,26.23
2023-10-10T18:09:09.636Z,26.24
2023-10-10T18:11:38.161Z,26.17
2023-10-10T18:14:08.645Z,26.16
2023-10-10T18:16:36.684Z,26.15
2023-10-10T18:19:06.675Z,26.18
2023-10-10T18:21:34.537Z,26.18
2023-10-10T18:24:08.017Z,26.13
2023-10-10T18:26:39.248Z,26.14
2023-10-10T18:29:06.924Z,26.10
2023-10-10T18:31:40.007Z,26.09
2023-10-10T18:34:08.293Z,26.06
2023-10-10T18:36:38.744Z,26.05
2023-10-10T18:39:14.705Z,26.02
2023-10-10T18:41:46.064Z,25.96
2023-10-10T18:44:17.446Z,25.97
2023-10-10T18:46:45.041Z,25.91
2023-10-10T18:49:15.952Z,25.91
2023-10-10T18:51:44.070Z,25.89
2023-10-10T18:54:12.518Z,25.86
2023-10-10T18:56:39.635Z,25.86
2023-10-10T18:59:06.889Z,25.84
2023-10-10T19:01:35.894Z,25.78
2023-10-10T19:04:03.062Z,25.80
2023-10-10T19:06:30.175Z,25.78
2023-10-10T19:09:01.425Z,25.78
2023-10-10T19:11:28.738Z,25.78
2023-10-10T19:13:57.037Z,25.78
2023-10-10T19:16:24.212Z,25.79
2023-10-10T19:18:51.400Z,25.77
2023-10-10T19:21:19.130Z,25.78
2023-10-10T19:23:53.437Z,25.77
2023-10-10T19:26:21.329Z,25.73
2023-10-10T19:28:54.727Z,25.71
2023-10-10T19:31:25.803Z,25.68
2023-10-10T19:33:53.216Z,25.65
2023-10-10T19:36:21.797Z,25.64
2023-10-10T19:38:49.259Z,25.63
2023-10-10T19:41:16.392Z,25.64
2023-10-10T19:43:43.519Z,25.61
2023-10-10T19:46:13.582Z,25.56
2023-10-10T19:48:44.423Z,25.53
2023-10-10T19:51:18.647Z,25.52
2023-10-10T19:53:50.793Z,25.54
2023-10-10T19:56:18.769Z,25.52
2023-10-10T19:58:47.196Z,25.51
2023-10-10T20:01:15.044Z,25.43
2023-10-10T20:03:44.078Z,25.35
2023-10-10T20:06:21.825Z,25.36
2023-10-10T20:08:50.183Z,25.30
2023-10-10T20:11:17.360Z,25.24
2023-10-10T20:13:44.510Z,25.24
2023-10-10T20:16:18.888Z,25.18
2023-10-10T20:18:45.891Z,25.09
2023-10-10T20:21:14.240Z,25.04
2023-10-10T20:23:41.655Z,25.04
2023-10-10T20:26:20.531Z,25.02
2023-10-10T20:28:56.218Z,25.01
2023-10-10T20:31:23.397Z,24.99
2023-10-10T20:33:51.670Z,24.95
2023-10-10T20:36:19.139Z,24.90
2023-10-10T20:38:46.287Z,24.89
2023-10-10T20:41:15.374Z,24.88
2023-10-10T20:43:43.845Z,24.85
2023-10-10T20:46:13.248Z,24.82
2023-10-10T20:48:40.417Z,24.80
2023-10-10T20:51:17.515Z,24.72
2023-10-10T20:53:47.112Z,24.69
2023-10-10T20:56:14.883Z,24.68
2023-10-10T20:58:42.028Z,24.66
2023-10-10T21:01:15.692Z,24.62
2023-10-10T21:03:43.013Z,24.58
2023-10-10T21:06:10.380Z,24.50
2023-10-10T21:08:37.571Z,24.52
2023-10-10T21:11:12.168Z,24.48
2023-10-10T21:13:39.300Z,24.47
2023-10-10T21:16:16.201Z,24.45
2023-10-10T21:18:45.645Z,24.46
2023-10-10T21:21:13.710Z,24.44
2023-10-10T21:23:40.871Z,24.42
2023-10-10T21:26:21.292Z,24.45
2023-10-10T21:28:49.666Z,24.44
2023-10-10T21:31:16.768Z,24.43
2023-10-10T21:33:45.576Z,24.45
2023-10-10T21:36:13.697Z,24.42
2023-10-10T21:38:41.156Z,24.40
2023-10-10T21:41:10.897Z,24.41
2023-10-10T21:43:38.563Z,24.39
2023-10-10T21:46:07.268Z,24.39
2023-10-10T21:48:34.620Z,24.37
2023-10-10T21:51:03.753Z,24.32
2023-10-10T21:53:33.443Z,24.30
2023-10-10T21:56:01.017Z,24.29
2023-10-10T21:58:28.100Z,24.27
2023-10-10T22:00:59.647Z,24.23
2023-10-10T22:03:27.204Z,24.22
2023-10-10T22:05:54.807Z,24.16
2023-10-10T22:08:22.037Z,24.17
2023-10-10T22:10:50.939Z,24.20
2023-10-10T22:13:18.073Z,24.18
2023-10-10T22:15:45.280Z,24.18
2023-10-10T22:18:13.025Z,24.14
2023-10-10T22:20:40.383Z,24.13
2023-10-10T22:23:07.405Z,24.15
2023-10-10T22:25:36.563Z,24.08
2023-10-10T22:28:05.055Z,24.07
2023-10-10T22:30:40.886Z,24.01
2023-10-10T22:33:12.105Z,23.99
2023-10-10T22:35:39.857Z,23.97
2023-10-10T22:38:07.726Z,24.00
2023-10-10T22:40:35.462Z,24.10
2023-10-10T22:43:05.085Z,24.15
2023-10-10T22:45:37.079Z,24.19
2023-10-10T22:48:08.965Z,24.29
2023-10-10T22:50:37.000Z,24.37
2023-10-10T22:53:05.903Z,24.38
2023-10-10T22:55:38.202Z,24.47
2023-10-10T22:58:08.378Z,24.48
2023-10-10T23:00:40.610Z,24.47
2023-10-10T23:03:14.278Z,24.46
2023-10-10T23:05:44.150Z,24.45
2023-10-10T23:08:12.492Z,24.41
2023-10-10T23:10:41.159Z,24.45
2023-10-10T23:13:08.547Z,24.43
2023-10-10T23:15:38.789Z,24.50
2023-10-10T23:18:12.019Z,24.50
2023-10-10T23:20:42.763Z,24.48
2023-10-10T23:23:11.978Z,24.47
2023-10-10T23:25:39.517Z,24.51
2023-10-10T23:28:10.001Z,24.53
2023-10-10T23:30:40.762Z,24.49
2023-10-10T23:33:17.695Z,24.47
2023-10-10T23:35:47.765Z,24.43
2023-10-10T23:38:16.430Z,24.38
2023-10-10T23:40:46.533Z,24.33
2023-10-10T23:43:22.649Z,24.36
2023-10-10T23:45:58.461Z,24.32
2023-10-10T23:48:32.373Z,24.31
2023-10-10T23:51:02.511Z,24.37
2023-10-10T23:53:29.589Z,24.29
2023-10-10T23:56:00.941Z,24.27
2023-10-10T23:58:30.740Z,24.22
